createdAt,value
2019-04-27T00:00:43.381Z,14.33
2019-04-27T00:01:26.544Z,12.15
2019-04-27T00:02:23.107Z,13.65
2019-04-27T00:03:05.991Z,16.05
2019-04-27T00:03:58.242Z,13.68
2019-04-27T00:04:52.847Z,13.30
2019-04-27T00:05:54.195Z,14.10
2019-04-27T00:06:28.282Z,14.70
2019-04-27T00:07:09.142Z,13.68
2019-04-27T00:08:13.956Z,12.53
2019-04-27T00:08:53.604Z,12.98
2019-04-27T00:09:36.424Z,13.88
2019-04-27T00:10:28.398Z,11.53
2019-04-27T00:11:22.666Z,13.28
2019-04-27T00:12:00.605Z,13.95
2019-04-27T00:12:34.433Z,13.13
2019-04-27T00:13:08.283Z,13.62
2019-04-27T00:13:43.857Z,12.33
2019-04-27T00:14:18.225Z,11.53
2019-04-27T00:14:54.446Z,13.50
2019-04-27T00:15:36.894Z,12.07
2019-04-27T00:16:23.500Z,11.20
2019-04-27T00:17:43.522Z,11.45
2019-04-27T00:18:21.451Z,13.15
2019-04-27T00:19:14.091Z,12.13
2019-04-27T00:19:53.431Z,12.07
2019-04-27T00:20:49.982Z,11.73
2019-04-27T00:21:34.948Z,10.93
2019-04-27T00:22:13.250Z,11.28
2019-04-27T00:22:51.362Z,10.30
2019-04-27T00:23:25.581Z,12.00
2019-04-27T00:23:59.292Z,11.25
2019-04-27T00:24:33.540Z,11.20
2019-04-27T00:25:08.117Z,11.70
2019-04-27T00:25:41.670Z,11.83
2019-04-27T00:26:15.169Z,10.23
2019-04-27T00:26:48.778Z,11.25
2019-04-27T00:27:23.461Z,10.45
2019-04-27T00:27:57.145Z,10.58
2019-04-27T00:28:30.766Z,10.85
2019-04-27T00:29:04.674Z,9.63
2019-04-27T00:29:38.198Z,11.28
2019-04-27T00:30:13.852Z,9.68
2019-04-27T00:30:47.563Z,9.93
2019-04-27T00:31:21.284Z,12.10
2019-04-27T00:31:55.731Z,10.45
2019-04-27T00:32:29.513Z,10.45
2019-04-27T00:33:05.166Z,11.03
2019-04-27T00:33:38.402Z,11.28
2019-04-27T00:34:13.332Z,9.63
2019-04-27T00:34:47.452Z,7.97
2019-04-27T00:35:30.079Z,9.93
2019-04-27T00:36:09.166Z,10.50
2019-04-27T00:36:50.754Z,12.07
2019-04-27T00:37:42.686Z,11.95
2019-04-27T00:38:26.425Z,9.58
2019-04-27T00:39:17.646Z,12.28
2019-04-27T00:40:03.783Z,10.90
2019-04-27T00:41:08.817Z,11.90
2019-04-27T00:41:42.994Z,11.12
2019-04-27T00:42:16.674Z,11.48
2019-04-27T00:42:50.347Z,11.40
2019-04-27T00:43:23.831Z,11.35
2019-04-27T00:43:57.369Z,11.45
2019-04-27T00:44:30.872Z,11.20
2019-04-27T00:45:05.374Z,11.15
2019-04-27T00:45:39.182Z,11.03
2019-04-27T00:46:13.865Z,10.70
2019-04-27T00:46:47.559Z,12.78
2019-04-27T00:47:21.098Z,11.75
2019-04-27T00:47:59.475Z,13.00
2019-04-27T00:48:30.086Z,13.30
2019-04-27T00:49:03.761Z,12.80
2019-04-27T00:49:37.458Z,12.35
2019-04-27T00:50:11.048Z,13.15
2019-04-27T00:50:44.527Z,13.18
2019-04-27T00:51:18.038Z,12.43
2019-04-27T00:51:53.457Z,12.28
2019-04-27T00:52:26.887Z,13.30
2019-04-27T00:53:00.372Z,12.53
2019-04-27T00:53:33.935Z,11.85
2019-04-27T00:54:07.673Z,12.58
2019-04-27T00:54:41.881Z,13.50
2019-04-27T00:55:15.366Z,14.40
2019-04-27T00:56:04.247Z,13.90
2019-04-27T00:56:55.466Z,12.65
2019-04-27T00:57:48.784Z,13.30
2019-04-27T00:58:37.812Z,12.50
2019-04-27T00:59:40.665Z,11.65
2019-04-27T01:00:39.628Z,12.30
2019-04-27T01:01:20.990Z,12.35
2019-04-27T01:02:03.744Z,13.18
2019-04-27T01:02:44.058Z,11.93
2019-04-27T01:03:25.544Z,12.13
2019-04-27T01:04:03.753Z,12.03
2019-04-27T01:04:37.957Z,12.47
2019-04-27T01:05:16.690Z,12.13
2019-04-27T01:05:50.406Z,12.95
2019-04-27T01:06:25.439Z,13.03
2019-04-27T01:06:58.918Z,12.15
2019-04-27T01:07:33.397Z,12.47
2019-04-27T01:08:07.210Z,12.78
2019-04-27T01:08:40.708Z,12.40
2019-04-27T01:09:15.262Z,12.15
2019-04-27T01:09:48.769Z,12.28
2019-04-27T01:10:23.349Z,11.60
2019-04-27T01:10:57.036Z,12.03
2019-04-27T01:11:30.537Z,11.22
2019-04-27T01:12:05.943Z,10.78
2019-04-27T01:12:39.504Z,11.63
2019-04-27T01:13:13.323Z,12.30
2019-04-27T01:13:46.978Z,11.97
2019-04-27T01:14:20.697Z,11.65
2019-04-27T01:14:54.388Z,12.98
2019-04-27T01:15:27.953Z,11.73
2019-04-27T01:16:01.468Z,11.12
2019-04-27T01:16:54.125Z,10.88
2019-04-27T01:17:28.872Z,11.22
2019-04-27T01:18:12.166Z,10.78
2019-04-27T01:18:38.710Z,9.25
2019-04-27T01:19:12.576Z,9.88
2019-04-27T01:19:46.533Z,9.38
2019-04-27T01:20:20.309Z,9.73
2019-04-27T01:20:54.137Z,10.88
2019-04-27T01:21:29.436Z,10.23
2019-04-27T01:22:03.196Z,11.18
2019-04-27T01:22:36.928Z,10.65
2019-04-27T01:23:10.815Z,10.23
2019-04-27T01:23:45.664Z,11.57
2019-04-27T01:24:19.601Z,9.88
2019-04-27T01:24:53.430Z,10.93
2019-04-27T01:25:33.714Z,11.10
2019-04-27T01:26:32.662Z,10.40
2019-04-27T01:27:29.225Z,10.50
2019-04-27T01:28:21.219Z,10.30
2019-04-27T01:28:59.257Z,10.20
2019-04-27T01:29:33.069Z,9.53
2019-04-27T01:30:12.005Z,10.43
2019-04-27T01:30:50.239Z,10.25
2019-04-27T01:31:23.802Z,9.75
2019-04-27T01:31:58.857Z,9.55
2019-04-27T01:32:34.006Z,8.95
2019-04-27T01:33:09.632Z,10.80
2019-04-27T01:33:43.172Z,9.90
2019-04-27T01:34:19.128Z,9.80
2019-04-27T01:34:52.716Z,10.70
2019-04-27T01:35:26.485Z,10.15
2019-04-27T01:36:00.374Z,9.70
2019-04-27T01:36:33.857Z,10.25
2019-04-27T01:37:07.347Z,9.68
2019-04-27T01:37:41.069Z,10.55
2019-04-27T01:38:14.590Z,9.73
2019-04-27T01:38:49.681Z,10.55
2019-04-27T01:39:23.564Z,9.93
2019-04-27T01:39:58.948Z,10.48
2019-04-27T01:40:32.426Z,9.50
2019-04-27T01:41:06.151Z,10.18
2019-04-27T01:41:39.811Z,9.05
2019-04-27T01:42:13.532Z,9.33
2019-04-27T01:42:48.409Z,10.53
2019-04-27T01:43:22.201Z,10.20
2019-04-27T01:43:55.746Z,9.93
2019-04-27T01:44:49.598Z,10.35
2019-04-27T01:45:23.855Z,9.70
2019-04-27T01:45:58.742Z,10.88
2019-04-27T01:46:32.666Z,10.32
2019-04-27T01:47:06.158Z,9.75
2019-04-27T01:47:39.783Z,10.18
2019-04-27T01:48:23.020Z,10.58
2019-04-27T01:48:49.059Z,9.80
2019-04-27T01:49:22.895Z,10.03
2019-04-27T01:49:56.412Z,9.85
2019-04-27T01:50:30.524Z,10.23
2019-04-27T01:51:04.253Z,10.55
2019-04-27T01:51:39.149Z,10.45
2019-04-27T01:52:12.962Z,10.50
2019-04-27T01:52:48.561Z,9.85
2019-04-27T01:53:22.177Z,10.00
2019-04-27T01:53:55.736Z,9.60
2019-04-27T01:54:29.885Z,9.48
2019-04-27T01:55:03.762Z,11.03
2019-04-27T01:55:38.657Z,9.80
2019-04-27T01:56:13.238Z,9.45
2019-04-27T01:56:46.866Z,9.28
2019-04-27T01:57:20.803Z,10.38
2019-04-27T01:57:54.454Z,10.25
2019-04-27T01:58:29.325Z,10.25
2019-04-27T01:59:03.251Z,10.15
2019-04-27T01:59:38.669Z,11.00
2019-04-27T02:00:26.461Z,9.70
2019-04-27T02:01:11.991Z,9.95
2019-04-27T02:02:05.264Z,9.73
2019-04-27T02:02:51.133Z,9.23
2019-04-27T02:03:39.108Z,9.80
2019-04-27T02:04:25.092Z,9.98
2019-04-27T02:05:19.003Z,10.60
2019-04-27T02:05:55.748Z,10.70
2019-04-27T02:06:29.913Z,11.85
2019-04-27T02:07:05.845Z,11.05
2019-04-27T02:07:40.490Z,10.78
2019-04-27T02:08:14.602Z,10.50
2019-04-27T02:08:49.334Z,10.45
2019-04-27T02:09:23.574Z,11.53
2019-04-27T02:09:58.832Z,11.57
2019-04-27T02:10:32.977Z,11.03
2019-04-27T02:11:07.480Z,10.70
2019-04-27T02:11:41.275Z,11.30
2019-04-27T02:12:15.316Z,10.70
2019-04-27T02:12:49.118Z,10.90
2019-04-27T02:13:22.947Z,12.00
2019-04-27T02:13:56.596Z,11.88
2019-04-27T02:14:30.362Z,13.08
2019-04-27T02:15:04.895Z,12.53
2019-04-27T02:15:39.553Z,10.70
2019-04-27T02:16:14.114Z,12.07
2019-04-27T02:16:49.284Z,12.65
2019-04-27T02:17:23.731Z,12.28
2019-04-27T02:17:59.632Z,12.58
2019-04-27T02:18:37.481Z,13.70
2019-04-27T02:19:11.414Z,11.85
2019-04-27T02:19:44.998Z,13.03
2019-04-27T02:20:19.740Z,13.22
2019-04-27T02:20:53.590Z,12.03
2019-04-27T02:21:29.476Z,11.68
2019-04-27T02:22:03.614Z,13.98
2019-04-27T02:22:38.438Z,12.23
2019-04-27T02:23:12.359Z,13.53
2019-04-27T02:23:46.258Z,12.93
2019-04-27T02:24:19.886Z,13.40
2019-04-27T02:24:56.517Z,12.23
2019-04-27T02:25:30.300Z,12.10
2019-04-27T02:26:04.001Z,13.78
2019-04-27T02:26:39.867Z,11.70
2019-04-27T02:27:15.550Z,13.65
2019-04-27T02:27:53.611Z,12.70
2019-04-27T02:28:46.822Z,13.70
2019-04-27T02:29:35.546Z,12.20
2019-04-27T02:30:40.743Z,12.95
2019-04-27T02:31:45.281Z,12.85
2019-04-27T02:32:40.270Z,11.38
2019-04-27T02:33:33.179Z,12.53
2019-04-27T02:34:13.107Z,12.47
2019-04-27T02:35:09.208Z,11.93
2019-04-27T02:35:43.615Z,13.25
2019-04-27T02:36:36.484Z,12.70
2019-04-27T02:37:10.672Z,12.88
2019-04-27T02:37:45.053Z,13.50
2019-04-27T02:38:20.178Z,13.70
2019-04-27T02:38:54.737Z,13.55
2019-04-27T02:39:29.759Z,13.50
2019-04-27T02:40:06.002Z,12.73
2019-04-27T02:40:55.071Z,15.03
2019-04-27T02:41:29.705Z,14.78
2019-04-27T02:42:03.583Z,13.78
2019-04-27T02:42:43.065Z,14.00
2019-04-27T02:43:19.412Z,14.33
2019-04-27T02:44:01.362Z,13.80
2019-04-27T02:44:37.498Z,15.43
2019-04-27T02:45:14.735Z,12.82
2019-04-27T02:45:50.302Z,14.13
2019-04-27T02:46:24.875Z,13.43
2019-04-27T02:47:00.401Z,15.35
2019-04-27T02:47:35.014Z,15.03
2019-04-27T02:48:09.964Z,13.55
2019-04-27T02:48:55.615Z,13.65
2019-04-27T02:49:20.243Z,14.50
2019-04-27T02:49:54.790Z,14.35
2019-04-27T02:50:29.274Z,14.78
2019-04-27T02:51:05.879Z,14.15
2019-04-27T02:52:04.648Z,14.53
2019-04-27T02:52:46.868Z,13.83
2019-04-27T02:53:39.933Z,14.33
2019-04-27T02:54:13.851Z,14.55
2019-04-27T02:54:50.494Z,15.30
2019-04-27T02:55:24.787Z,14.60
2019-04-27T02:55:59.574Z,15.20
2019-04-27T02:56:33.926Z,15.58
2019-04-27T02:57:10.105Z,15.28
2019-04-27T02:57:44.134Z,15.25
2019-04-27T02:58:21.492Z,15.75
2019-04-27T02:58:53.782Z,16.80
2019-04-27T02:59:30.189Z,16.45
2019-04-27T03:00:03.468Z,15.68
2019-04-27T03:00:39.746Z,14.43
2019-04-27T03:01:13.507Z,16.02
2019-04-27T03:02:02.443Z,17.80
2019-04-27T03:02:43.562Z,14.98
2019-04-27T03:03:20.354Z,16.37
2019-04-27T03:03:54.219Z,16.97
2019-04-27T03:04:30.316Z,16.60
2019-04-27T03:05:04.150Z,16.25
2019-04-27T03:05:39.889Z,16.77
2019-04-27T03:06:13.955Z,15.45
2019-04-27T03:06:49.939Z,14.65
2019-04-27T03:08:10.258Z,16.42
2019-04-27T03:08:44.225Z,15.23
2019-04-27T03:09:20.479Z,16.65
2019-04-27T03:09:54.170Z,14.23
2019-04-27T03:10:31.017Z,14.95
2019-04-27T03:11:05.490Z,17.15
2019-04-27T03:11:39.727Z,17.55
2019-04-27T03:12:14.233Z,17.48
2019-04-27T03:12:53.799Z,15.15
2019-04-27T03:13:37.335Z,15.50
2019-04-27T03:14:35.827Z,15.65
2019-04-27T03:15:24.661Z,15.90
2019-04-27T03:16:16.176Z,15.85
2019-04-27T03:17:12.531Z,16.25
2019-04-27T03:18:23.258Z,17.20
2019-04-27T03:19:21.764Z,16.07
2019-04-27T03:20:01.741Z,16.40
2019-04-27T03:20:54.461Z,17.12
2019-04-27T03:21:49.468Z,15.45
2019-04-27T03:22:25.793Z,15.93
2019-04-27T03:23:02.043Z,16.62
2019-04-27T03:23:35.688Z,15.50
2019-04-27T03:24:09.953Z,16.50
2019-04-27T03:25:20.226Z,16.93
2019-04-27T03:26:03.358Z,18.15
2019-04-27T03:26:50.039Z,16.95
2019-04-27T03:27:24.943Z,15.98
2019-04-27T03:28:05.520Z,16.60
2019-04-27T03:28:40.120Z,17.80
2019-04-27T03:29:14.357Z,17.57
2019-04-27T03:29:49.913Z,16.75
2019-04-27T03:30:45.735Z,16.97
2019-04-27T03:31:13.584Z,16.50
2019-04-27T03:31:48.020Z,17.10
2019-04-27T03:32:23.218Z,17.42
2019-04-27T03:33:02.766Z,17.75
2019-04-27T03:33:33.719Z,17.50
2019-04-27T03:34:15.781Z,16.80
2019-04-27T03:34:43.400Z,18.25
2019-04-27T03:35:17.269Z,19.37
2019-04-27T03:35:52.817Z,17.60
2019-04-27T03:36:31.275Z,17.42
2019-04-27T03:37:03.056Z,18.10
2019-04-27T03:37:36.583Z,17.92
2019-04-27T03:38:12.438Z,17.77
2019-04-27T03:38:45.646Z,16.87
2019-04-27T03:39:20.010Z,17.40
2019-04-27T03:39:54.382Z,16.95
2019-04-27T03:40:30.757Z,19.55
2019-04-27T03:41:04.307Z,19.20
2019-04-27T03:41:38.083Z,19.02
2019-04-27T03:42:12.045Z,18.62
2019-04-27T03:42:50.245Z,18.35
2019-04-27T03:43:25.371Z,18.50
2019-04-27T03:43:59.992Z,18.92
2019-04-27T03:44:33.971Z,18.52
2019-04-27T03:45:10.803Z,18.37
2019-04-27T03:45:43.740Z,18.50
2019-04-27T03:46:20.189Z,17.20
2019-04-27T03:46:53.152Z,17.77
2019-04-27T03:47:27.015Z,17.23
2019-04-27T03:48:04.720Z,18.98
2019-04-27T03:48:40.747Z,17.92
2019-04-27T03:49:27.861Z,18.65
2019-04-27T03:49:51.006Z,19.25
2019-04-27T03:50:31.515Z,18.35
2019-04-27T03:51:30.404Z,18.80
2019-04-27T03:52:13.088Z,17.77
2019-04-27T03:53:05.388Z,16.80
2019-04-27T03:54:04.857Z,17.45
2019-04-27T03:54:53.096Z,18.05
2019-04-27T03:55:30.728Z,18.60
2019-04-27T03:56:20.440Z,19.45
2019-04-27T03:57:02.254Z,17.95
2019-04-27T03:57:40.262Z,18.27
2019-04-27T03:58:36.116Z,18.98
2019-04-27T03:59:13.935Z,17.35
2019-04-27T04:00:02.508Z,19.52
2019-04-27T04:00:36.576Z,18.42
2019-04-27T04:01:11.812Z,18.98
2019-04-27T04:01:46.702Z,18.32
2019-04-27T04:02:20.902Z,20.35
2019-04-27T04:02:55.124Z,19.62
2019-04-27T04:03:30.041Z,19.37
2019-04-27T04:04:05.328Z,18.85
2019-04-27T04:04:40.523Z,18.85
2019-04-27T04:05:14.613Z,18.87
2019-04-27T04:05:51.952Z,19.57
2019-04-27T04:06:25.713Z,19.82
2019-04-27T04:07:14.140Z,19.02
2019-04-27T04:07:50.390Z,20.20
2019-04-27T04:08:23.551Z,19.23
2019-04-27T04:08:59.887Z,19.75
2019-04-27T04:09:41.883Z,19.23
2019-04-27T04:10:19.512Z,20.20
2019-04-27T04:10:59.540Z,21.50
2019-04-27T04:11:42.802Z,19.90
2019-04-27T04:12:30.295Z,18.92
2019-04-27T04:13:36.775Z,19.87
2019-04-27T04:14:13.658Z,19.90
2019-04-27T04:14:49.293Z,19.15
2019-04-27T04:15:35.658Z,20.50
2019-04-27T04:16:20.165Z,20.12
2019-04-27T04:17:01.692Z,17.80
2019-04-27T04:17:32.650Z,19.85
2019-04-27T04:18:06.863Z,19.25
2019-04-27T04:19:00.370Z,20.60
2019-04-27T04:19:47.815Z,19.17
2019-04-27T04:20:10.182Z,20.02
2019-04-27T04:20:44.412Z,19.48
2019-04-27T04:21:19.426Z,20.57
2019-04-27T04:21:53.618Z,20.30
2019-04-27T04:22:27.241Z,20.20
2019-04-27T04:23:03.398Z,20.17
2019-04-27T04:23:40.135Z,19.98
2019-04-27T04:24:13.130Z,20.15
2019-04-27T04:24:46.831Z,21.07
2019-04-27T04:25:20.482Z,20.20
2019-04-27T04:25:54.529Z,22.77
2019-04-27T04:26:29.481Z,21.77
2019-04-27T04:27:05.119Z,21.10
2019-04-27T04:27:40.141Z,20.50
2019-04-27T04:28:14.718Z,20.30
2019-04-27T04:28:50.059Z,21.60
2019-04-27T04:29:24.466Z,20.62
2019-04-27T04:29:59.568Z,20.40
2019-04-27T04:30:33.400Z,19.62
2019-04-27T04:31:10.854Z,20.55
2019-04-27T04:31:42.404Z,21.50
2019-04-27T04:32:19.068Z,20.95
2019-04-27T04:32:52.322Z,21.35
2019-04-27T04:33:26.214Z,21.05
2019-04-27T04:34:12.148Z,20.05
2019-04-27T04:34:46.418Z,21.80
2019-04-27T04:35:21.953Z,21.40
2019-04-27T04:35:56.355Z,20.65
2019-04-27T04:36:30.951Z,21.45
2019-04-27T04:37:05.181Z,21.30
2019-04-27T04:37:39.510Z,20.80
2019-04-27T04:38:13.780Z,21.93
2019-04-27T04:38:50.183Z,21.82
2019-04-27T04:39:24.926Z,21.33
2019-04-27T04:39:59.806Z,20.92
2019-04-27T04:40:42.708Z,21.23
2019-04-27T04:41:24.651Z,21.52
2019-04-27T04:42:16.466Z,22.52
2019-04-27T04:42:55.246Z,20.60
2019-04-27T04:43:43.898Z,21.60
2019-04-27T04:44:35.579Z,20.32
2019-04-27T04:45:35.128Z,21.48
2019-04-27T04:46:29.638Z,21.30
2019-04-27T04:47:19.991Z,20.75
2019-04-27T04:48:00.371Z,21.02
2019-04-27T04:48:34.614Z,20.57
2019-04-27T04:49:09.507Z,21.35
2019-04-27T04:49:44.366Z,21.85
2019-04-27T04:50:20.326Z,23.07
2019-04-27T04:50:54.763Z,22.98
2019-04-27T04:51:30.507Z,21.70
2019-04-27T04:52:05.300Z,22.42
2019-04-27T04:52:42.306Z,23.77
2019-04-27T04:53:15.379Z,21.62
2019-04-27T04:53:51.822Z,24.47
2019-04-27T04:54:26.616Z,23.22
2019-04-27T04:55:02.732Z,23.73
2019-04-27T04:55:36.585Z,22.90
2019-04-27T04:56:10.956Z,24.70
2019-04-27T04:56:45.215Z,24.30
2019-04-27T04:57:21.706Z,23.25
2019-04-27T04:57:55.677Z,21.82
2019-04-27T04:58:29.895Z,22.37
2019-04-27T04:59:04.394Z,23.45
2019-04-27T04:59:39.001Z,23.50
2019-04-27T05:00:13.397Z,24.15
2019-04-27T05:00:50.248Z,23.20
2019-04-27T05:01:23.494Z,22.73
2019-04-27T05:02:01.863Z,22.20
2019-04-27T05:02:33.504Z,23.20
2019-04-27T05:03:09.416Z,23.55
2019-04-27T05:03:43.003Z,25.92
2019-04-27T05:04:16.761Z,23.85
2019-04-27T05:04:50.414Z,22.93
2019-04-27T05:05:24.775Z,24.12
2019-04-27T05:05:58.982Z,23.07
2019-04-27T05:06:33.187Z,23.73
2019-04-27T05:07:09.238Z,22.93
2019-04-27T05:07:42.829Z,22.55
2019-04-27T05:08:16.939Z,23.87
2019-04-27T05:08:51.058Z,22.93
2019-04-27T05:09:25.100Z,24.45
2019-04-27T05:09:59.057Z,25.45
2019-04-27T05:10:32.744Z,23.65
2019-04-27T05:11:06.604Z,23.77
2019-04-27T05:11:40.788Z,23.83
2019-04-27T05:12:14.759Z,24.82
2019-04-27T05:12:50.418Z,23.20
2019-04-27T05:13:24.409Z,25.10
2019-04-27T05:14:19.812Z,25.50
2019-04-27T05:14:54.621Z,23.50
2019-04-27T05:15:30.277Z,22.10
2019-04-27T05:16:23.606Z,23.90
2019-04-27T05:16:59.163Z,25.70
2019-04-27T05:17:33.165Z,23.90
2019-04-27T05:18:09.090Z,25.05
2019-04-27T05:18:43.792Z,24.57
2019-04-27T05:19:18.845Z,24.57
2019-04-27T05:19:53.490Z,23.40
2019-04-27T05:20:48.965Z,25.60
2019-04-27T05:21:29.822Z,23.80
2019-04-27T05:22:04.394Z,24.12
2019-04-27T05:22:39.367Z,25.65
2019-04-27T05:23:13.928Z,23.42
2019-04-27T05:23:48.747Z,23.45
2019-04-27T05:24:23.474Z,25.40
2019-04-27T05:25:03.601Z,25.68
2019-04-27T05:25:39.096Z,24.55
2019-04-27T05:26:13.358Z,26.05
2019-04-27T05:26:48.719Z,24.63
2019-04-27T05:27:23.898Z,24.65
2019-04-27T05:27:59.562Z,26.12
2019-04-27T05:28:33.864Z,24.82
2019-04-27T05:29:09.126Z,26.02
2019-04-27T05:29:43.604Z,25.43
2019-04-27T05:30:19.560Z,25.90
2019-04-27T05:30:55.293Z,24.57
2019-04-27T05:31:29.873Z,25.68
2019-04-27T05:32:04.522Z,24.45
2019-04-27T05:32:39.371Z,25.27
2019-04-27T05:33:13.805Z,24.60
2019-04-27T05:33:49.070Z,25.70
2019-04-27T05:34:23.229Z,24.30
2019-04-27T05:34:57.263Z,24.65
2019-04-27T05:35:31.161Z,24.15
2019-04-27T05:36:04.952Z,25.65
2019-04-27T05:36:41.581Z,24.67
2019-04-27T05:37:14.608Z,24.90
2019-04-27T05:37:49.328Z,23.10
2019-04-27T05:38:23.401Z,25.92
2019-04-27T05:38:57.573Z,24.50
2019-04-27T05:39:31.791Z,25.77
2019-04-27T05:40:05.781Z,25.45
2019-04-27T05:40:40.100Z,24.55
2019-04-27T05:41:14.630Z,25.05
2019-04-27T05:41:49.775Z,25.30
2019-04-27T05:42:23.870Z,25.32
2019-04-27T05:42:58.598Z,24.65
2019-04-27T05:43:39.748Z,25.43
2019-04-27T05:44:22.826Z,24.77
2019-04-27T05:45:06.888Z,22.90
2019-04-27T05:46:01.032Z,25.45
2019-04-27T05:47:13.286Z,22.30
2019-04-27T05:47:52.728Z,23.73
2019-04-27T05:48:30.755Z,23.80
2019-04-27T05:49:07.759Z,22.58
2019-04-27T05:49:48.565Z,25.30
2019-04-27T05:50:35.585Z,23.12
2019-04-27T05:51:02.034Z,23.67
2019-04-27T05:51:37.132Z,25.35
2019-04-27T05:52:30.355Z,23.38
2019-04-27T05:53:05.981Z,24.75
2019-04-27T05:53:40.239Z,23.50
2019-04-27T05:54:14.265Z,22.35
2019-04-27T05:54:49.647Z,25.30
2019-04-27T05:55:24.834Z,23.77
2019-04-27T05:56:00.132Z,22.87
2019-04-27T05:56:34.834Z,22.80
2019-04-27T05:57:09.521Z,23.80
2019-04-27T05:57:43.280Z,22.55
2019-04-27T05:58:17.501Z,22.90
2019-04-27T05:58:52.240Z,24.07
2019-04-27T05:59:27.316Z,23.85
2019-04-27T06:00:02.629Z,22.27
2019-04-27T06:00:39.369Z,23.25
2019-04-27T06:01:14.087Z,23.35
2019-04-27T06:01:49.220Z,23.47
2019-04-27T06:02:24.776Z,22.50
2019-04-27T06:02:59.059Z,24.32
2019-04-27T06:03:32.757Z,24.12
2019-04-27T06:04:06.598Z,23.20
2019-04-27T06:04:41.403Z,23.15
2019-04-27T06:05:15.459Z,23.32
2019-04-27T06:05:49.491Z,22.45
2019-04-27T06:06:24.465Z,24.95
2019-04-27T06:07:00.540Z,22.65
2019-04-27T06:07:34.232Z,22.07
2019-04-27T06:08:08.760Z,23.07
2019-04-27T06:08:42.818Z,23.00
2019-04-27T06:09:16.592Z,22.95
2019-04-27T06:09:50.341Z,22.05
2019-04-27T06:10:24.038Z,20.65
2019-04-27T06:10:59.249Z,23.30
2019-04-27T06:11:33.999Z,23.25
2019-04-27T06:12:08.990Z,22.55
2019-04-27T06:12:43.718Z,21.65
2019-04-27T06:13:19.001Z,22.40
2019-04-27T06:13:52.974Z,22.52
2019-04-27T06:14:27.029Z,21.80
2019-04-27T06:15:01.104Z,22.00
2019-04-27T06:15:34.800Z,22.80
2019-04-27T06:16:09.453Z,21.45
2019-04-27T06:16:43.500Z,21.85
2019-04-27T06:17:19.445Z,22.75
2019-04-27T06:17:54.242Z,23.57
2019-04-27T06:18:33.779Z,23.65
2019-04-27T06:19:07.405Z,21.45
2019-04-27T06:19:43.777Z,21.82
2019-04-27T06:20:16.468Z,24.18
2019-04-27T06:20:55.045Z,23.27
2019-04-27T06:21:25.427Z,23.22
2019-04-27T06:22:00.963Z,23.25
2019-04-27T06:22:34.274Z,23.05
2019-04-27T06:23:08.952Z,22.45
2019-04-27T06:23:42.656Z,22.80
2019-04-27T06:24:16.223Z,23.45
2019-04-27T06:24:54.335Z,24.10
2019-04-27T06:25:25.094Z,24.07
2019-04-27T06:26:01.553Z,22.80
2019-04-27T06:26:35.014Z,23.75
2019-04-27T06:27:09.436Z,24.15
2019-04-27T06:27:43.368Z,23.35
2019-04-27T06:28:16.973Z,23.42
2019-04-27T06:28:50.582Z,22.42
2019-04-27T06:29:24.111Z,25.10
2019-04-27T06:29:59.334Z,23.92
2019-04-27T06:30:32.951Z,22.90
2019-04-27T06:31:06.505Z,24.37
2019-04-27T06:31:40.712Z,25.80
2019-04-27T06:32:14.351Z,24.47
2019-04-27T06:32:49.479Z,24.30
2019-04-27T06:33:32.054Z,23.60
2019-04-27T06:33:59.727Z,23.65
2019-04-27T06:34:33.542Z,23.00
2019-04-27T06:35:09.875Z,24.23
2019-04-27T06:35:44.226Z,24.45
2019-04-27T06:36:19.592Z,24.85
2019-04-27T06:36:53.570Z,24.57
2019-04-27T06:37:29.101Z,23.40
2019-04-27T06:38:02.433Z,25.60
2019-04-27T06:38:36.333Z,24.43
2019-04-27T06:39:10.178Z,24.92
2019-04-27T06:39:43.835Z,25.02
2019-04-27T06:40:18.722Z,26.90
2019-04-27T06:40:52.667Z,25.45
2019-04-27T06:41:26.222Z,26.45
2019-04-27T06:42:01.320Z,25.32
2019-04-27T06:42:35.263Z,25.25
2019-04-27T06:43:08.949Z,24.02
2019-04-27T06:43:42.445Z,25.05
2019-04-27T06:44:16.357Z,25.00
2019-04-27T06:44:50.358Z,26.17
2019-04-27T06:45:23.905Z,25.25
2019-04-27T06:45:58.695Z,25.95
2019-04-27T06:46:32.803Z,24.55
2019-04-27T06:47:06.318Z,25.17
2019-04-27T06:47:41.475Z,24.85
2019-04-27T06:48:15.409Z,23.98
2019-04-27T06:48:49.571Z,26.27
2019-04-27T06:49:23.334Z,26.57
2019-04-27T06:49:58.553Z,27.05
2019-04-27T06:50:32.202Z,25.15
2019-04-27T06:51:05.958Z,26.25
2019-04-27T06:51:40.524Z,24.80
2019-04-27T06:52:33.131Z,26.23
2019-04-27T06:53:06.727Z,25.88
2019-04-27T06:53:40.255Z,27.10
2019-04-27T06:54:13.790Z,26.35
2019-04-27T06:54:48.582Z,27.05
2019-04-27T06:55:41.523Z,26.85
2019-04-27T06:56:15.190Z,26.60
2019-04-27T06:56:49.073Z,25.40
2019-04-27T06:57:22.678Z,26.68
2019-04-27T06:57:59.340Z,27.27
2019-04-27T06:58:32.972Z,27.20
2019-04-27T06:59:06.577Z,27.15
2019-04-27T06:59:40.204Z,26.23
2019-04-27T07:00:13.732Z,26.23
2019-04-27T07:00:47.306Z,26.35
2019-04-27T07:01:20.943Z,26.35
2019-04-27T07:01:54.510Z,26.20
2019-04-27T07:02:29.144Z,27.32
2019-04-27T07:03:03.026Z,28.10
2019-04-27T07:03:36.600Z,27.48
2019-04-27T07:04:10.916Z,27.85
2019-04-27T07:04:44.657Z,27.45
2019-04-27T07:05:18.539Z,28.15
2019-04-27T07:05:53.526Z,28.15
2019-04-27T07:06:28.506Z,25.57
2019-04-27T07:07:03.371Z,27.67
2019-04-27T07:07:36.963Z,26.33
2019-04-27T07:08:10.478Z,28.83
2019-04-27T07:08:43.993Z,26.60
2019-04-27T07:09:19.570Z,27.02
2019-04-27T07:09:53.274Z,28.75
2019-04-27T07:10:28.498Z,27.95
2019-04-27T07:11:02.409Z,27.60
2019-04-27T07:11:36.489Z,29.23
2019-04-27T07:12:16.059Z,26.77
2019-04-27T07:12:49.655Z,27.35
2019-04-27T07:13:23.384Z,26.70
2019-04-27T07:13:56.959Z,28.45
2019-04-27T07:14:30.516Z,30.05
2019-04-27T07:15:04.451Z,27.00
2019-04-27T07:15:38.734Z,28.50
2019-04-27T07:16:12.590Z,29.00
2019-04-27T07:16:46.270Z,27.40
2019-04-27T07:17:20.039Z,30.00
2019-04-27T07:17:53.634Z,29.35
2019-04-27T07:18:28.597Z,29.35
2019-04-27T07:19:02.762Z,30.68
2019-04-27T07:19:36.293Z,28.85
2019-04-27T07:20:10.050Z,29.27
2019-04-27T07:20:43.783Z,29.60
2019-04-27T07:21:22.795Z,29.48
2019-04-27T07:21:52.685Z,28.95
2019-04-27T07:22:29.849Z,29.18
2019-04-27T07:23:03.838Z,28.50
2019-04-27T07:23:39.651Z,26.70
2019-04-27T07:24:13.264Z,30.20
2019-04-27T07:24:46.754Z,31.15
2019-04-27T07:25:20.442Z,28.60
2019-04-27T07:25:54.197Z,30.92
2019-04-27T07:26:30.002Z,30.00
2019-04-27T07:27:03.410Z,28.65
2019-04-27T07:27:39.305Z,31.82
2019-04-27T07:28:12.541Z,30.15
2019-04-27T07:28:46.178Z,29.48
2019-04-27T07:29:19.774Z,30.40
2019-04-27T07:29:53.727Z,30.35
2019-04-27T07:30:28.820Z,31.65
2019-04-27T07:31:02.641Z,29.65
2019-04-27T07:31:36.156Z,31.12
2019-04-27T07:32:09.691Z,29.90
2019-04-27T07:32:43.234Z,30.35
2019-04-27T07:33:18.495Z,31.70
2019-04-27T07:33:52.109Z,29.95
2019-04-27T07:34:25.825Z,31.25
2019-04-27T07:34:59.384Z,30.43
2019-04-27T07:35:33.423Z,30.82
2019-04-27T07:36:11.033Z,30.25
2019-04-27T07:36:44.758Z,31.77
2019-04-27T07:37:19.575Z,31.85
2019-04-27T07:37:56.214Z,32.78
2019-04-27T07:38:34.160Z,31.48
2019-04-27T07:39:09.648Z,31.70
2019-04-27T07:39:44.666Z,33.45
2019-04-27T07:40:19.211Z,32.53
2019-04-27T07:40:52.762Z,34.00
2019-04-27T07:41:26.309Z,30.95
2019-04-27T07:42:00.098Z,33.25
2019-04-27T07:42:34.139Z,32.05
2019-04-27T07:43:21.174Z,32.55
2019-04-27T07:44:04.514Z,31.20
2019-04-27T07:44:47.692Z,31.65
2019-04-27T07:45:26.391Z,31.73
2019-04-27T07:46:00.211Z,31.70
2019-04-27T07:46:33.794Z,33.95
2019-04-27T07:47:19.479Z,33.60
2019-04-27T07:47:54.615Z,31.52
2019-04-27T07:48:28.612Z,33.85
2019-04-27T07:49:04.736Z,34.18
2019-04-27T07:49:39.105Z,32.30
2019-04-27T07:50:13.516Z,34.20
2019-04-27T07:50:48.649Z,34.65
2019-04-27T07:51:31.564Z,31.68
2019-04-27T07:51:58.973Z,32.73
2019-04-27T07:52:32.861Z,31.73
2019-04-27T07:53:06.361Z,31.70
2019-04-27T07:53:39.958Z,31.80
2019-04-27T07:54:13.565Z,32.65
2019-04-27T07:54:49.118Z,31.90
2019-04-27T07:55:22.387Z,33.20
2019-04-27T07:55:55.934Z,31.52
2019-04-27T07:56:29.531Z,31.60
2019-04-27T07:57:03.399Z,31.02
2019-04-27T07:57:37.561Z,34.23
2019-04-27T07:58:11.194Z,30.68
2019-04-27T07:58:44.827Z,35.28
2019-04-27T07:59:18.899Z,32.98
2019-04-27T07:59:55.701Z,31.70
2019-04-27T08:00:29.311Z,34.05
2019-04-27T08:01:02.909Z,34.23